sensor_id;sensor_type;location;lat;lon;timestamp;pressure;altitude;pressure_sealevel;temperature;humidity
38612;BME280;24368;52.156;20.788;2022-08-05T00:05:01;100594.34;;;20.11;74.81
38612;BME280;24368;52.156;20.788;2022-08-05T00:10:03;100594.66;;;19.99;75.24
38612;BME280;24368;52.156;20.788;2022-08-05T00:15:05;100598.05;;;19.93;74.70
38612;BME280;24368;52.156;20.788;2022-08-05T00:20:07;100599.34;;;19.95;75.38
38612;BME280;24368;52.156;20.788;2022-08-05T00:25:09;100598.39;;;19.89;75.49
38612;BME280;24368;52.156;20.788;2022-08-05T00:30:11;100596.49;;;19.87;74.86
38612;BME280;24368;52.156;20.788;2022-08-05T00:35:12;100598.64;;;19.93;74.60
38612;BME280;24368;52.156;20.788;2022-08-05T00:40:14;100596.84;;;19.80;74.80
38612;BME280;24368;52.156;20.788;2022-08-05T00:45:16;100594.54;;;19.78;75.87
38612;BME280;24368;52.156;20.788;2022-08-05T00:50:17;100596.72;;;19.72;76.26
38612;BME280;24368;52.156;20.788;2022-08-05T00:55:19;100593.46;;;19.74;75.79
38612;BME280;24368;52.156;20.788;2022-08-05T01:00:21;100591.45;;;19.68;75.97
38612;BME280;24368;52.156;20.788;2022-08-05T01:05:22;100587.11;;;19.64;75.87
38612;BME280;24368;52.156;20.788;2022-08-05T01:10:28;100584.98;;;19.56;76.15
38612;BME280;24368;52.156;20.788;2022-08-05T01:15:32;100582.07;;;19.52;76.31
38612;BME280;24368;52.156;20.788;2022-08-05T01:25:48;100577.70;;;19.64;75.63
38612;BME280;24368;52.156;20.788;2022-08-05T01:31:01;100573.78;;;19.60;75.96
38612;BME280;24368;52.156;20.788;2022-08-05T01:36:07;100573.09;;;19.46;76.21
38612;BME280;24368;52.156;20.788;2022-08-05T01:41:10;100567.48;;;19.45;76.47
38612;BME280;24368;52.156;20.788;2022-08-05T01:46:14;100571.39;;;19.51;75.99
38612;BME280;24368;52.156;20.788;2022-08-05T01:51:17;100567.17;;;19.57;75.85
38612;BME280;24368;52.156;20.788;2022-08-05T01:56:19;100562.08;;;19.62;75.82
38612;BME280;24368;52.156;20.788;2022-08-05T02:01:23;100560.25;;;19.50;76.28
38612;BME280;24368;52.156;20.788;2022-08-05T02:06:26;100563.64;;;19.34;76.86
38612;BME280;24368;52.156;20.788;2022-08-05T02:11:30;100559.84;;;19.20;77.43
38612;BME280;24368;52.156;20.788;2022-08-05T02:21:57;100548.27;;;19.18;77.81
38612;BME280;24368;52.156;20.788;2022-08-05T02:27:00;100550.44;;;19.13;78.16
38612;BME280;24368;52.156;20.788;2022-08-05T02:32:03;100545.66;;;19.11;78.64
38612;BME280;24368;52.156;20.788;2022-08-05T02:37:08;100540.09;;;19.06;79.08
38612;BME280;24368;52.156;20.788;2022-08-05T02:42:10;100537.36;;;19.02;79.27
38612;BME280;24368;52.156;20.788;2022-08-05T02:47:12;100532.73;;;18.95;79.41
38612;BME280;24368;52.156;20.788;2022-08-05T02:52:18;100533.90;;;18.95;79.45
38612;BME280;24368;52.156;20.788;2022-08-05T02:57:20;100530.55;;;18.91;79.80
38612;BME280;24368;52.156;20.788;2022-08-05T03:02:24;100528.84;;;18.81;80.25
38612;BME280;24368;52.156;20.788;2022-08-05T03:07:26;100525.76;;;18.75;80.66
38612;BME280;24368;52.156;20.788;2022-08-05T03:12:29;100525.63;;;18.73;81.12
38612;BME280;24368;52.156;20.788;2022-08-05T03:17:31;100523.16;;;18.78;81.27
38612;BME280;24368;52.156;20.788;2022-08-05T03:22:32;100512.49;;;18.88;80.98
38612;BME280;24368;52.156;20.788;2022-08-05T03:27:34;100507.48;;;18.91;80.86
38612;BME280;24368;52.156;20.788;2022-08-05T03:32:36;100517.33;;;18.96;80.96
38612;BME280;24368;52.156;20.788;2022-08-05T03:37:39;100517.20;;;18.93;81.33
38612;BME280;24368;52.156;20.788;2022-08-05T03:42:40;100520.58;;;18.87;81.65
38612;BME280;24368;52.156;20.788;2022-08-05T03:47:42;100520.37;;;18.85;81.61
38612;BME280;24368;52.156;20.788;2022-08-05T03:52:47;100517.02;;;18.79;82.36
38612;BME280;24368;52.156;20.788;2022-08-05T03:57:51;100516.23;;;18.75;82.96
38612;BME280;24368;52.156;20.788;2022-08-05T04:02:53;100518.83;;;18.74;82.98
38612;BME280;24368;52.156;20.788;2022-08-05T04:07:55;100512.27;;;18.64;83.25
38612;BME280;24368;52.156;20.788;2022-08-05T04:12:57;100515.36;;;18.66;83.59
38612;BME280;24368;52.156;20.788;2022-08-05T04:18:02;100513.38;;;18.70;83.88
38612;BME280;24368;52.156;20.788;2022-08-05T04:23:04;100517.50;;;18.74;84.19
38612;BME280;24368;52.156;20.788;2022-08-05T04:28:06;100515.75;;;18.87;83.72
38612;BME280;24368;52.156;20.788;2022-08-05T04:33:07;100516.42;;;19.01;83.53
38612;BME280;24368;52.156;20.788;2022-08-05T04:38:09;100516.91;;;19.12;83.06
38612;BME280;24368;52.156;20.788;2022-08-05T04:43:11;100506.70;;;19.24;83.11
38612;BME280;24368;52.156;20.788;2022-08-05T04:48:13;100507.64;;;19.28;83.02
38612;BME280;24368;52.156;20.788;2022-08-05T04:53:15;100508.51;;;19.36;83.10
38612;BME280;24368;52.156;20.788;2022-08-05T04:58:17;100507.19;;;19.41;83.55
38612;BME280;24368;52.156;20.788;2022-08-05T05:03:19;100505.61;;;19.46;83.50
38612;BME280;24368;52.156;20.788;2022-08-05T05:08:20;100508.81;;;19.51;83.87
38612;BME280;24368;52.156;20.788;2022-08-05T05:13:22;100508.90;;;19.69;83.19
38612;BME280;24368;52.156;20.788;2022-08-05T05:18:24;100511.72;;;19.79;82.66
38612;BME280;24368;52.156;20.788;2022-08-05T05:23:25;100517.20;;;19.89;82.57
38612;BME280;24368;52.156;20.788;2022-08-05T05:28:27;100523.02;;;19.96;82.53
38612;BME280;24368;52.156;20.788;2022-08-05T05:33:28;100528.02;;;20.09;82.33
38612;BME280;24368;52.156;20.788;2022-08-05T05:38:30;100531.59;;;20.30;81.12
38612;BME280;24368;52.156;20.788;2022-08-05T05:43:32;100536.54;;;20.55;80.14
38612;BME280;24368;52.156;20.788;2022-08-05T05:48:33;100539.83;;;20.72;79.31
38612;BME280;24368;52.156;20.788;2022-08-05T05:53:35;100535.29;;;20.86;79.34
38612;BME280;24368;52.156;20.788;2022-08-05T05:58:36;100533.40;;;20.91;79.66
38612;BME280;24368;52.156;20.788;2022-08-05T06:03:39;100526.83;;;21.01;79.13
38612;BME280;24368;52.156;20.788;2022-08-05T06:08:41;100526.64;;;21.10;78.45
38612;BME280;24368;52.156;20.788;2022-08-05T06:13:44;100529.15;;;21.16;78.21
38612;BME280;24368;52.156;20.788;2022-08-05T06:18:46;100523.81;;;21.20;78.07
38612;BME280;24368;52.156;20.788;2022-08-05T06:23:47;100525.44;;;21.24;79.04
38612;BME280;24368;52.156;20.788;2022-08-05T06:28:49;100523.27;;;21.33;79.36
38612;BME280;24368;52.156;20.788;2022-08-05T06:33:51;100520.77;;;21.39;78.87
38612;BME280;24368;52.156;20.788;2022-08-05T06:38:53;100524.89;;;21.45;78.83
38612;BME280;24368;52.156;20.788;2022-08-05T06:43:55;100518.63;;;21.65;76.75
38612;BME280;24368;52.156;20.788;2022-08-05T06:48:58;100513.30;;;21.87;76.30
38612;BME280;24368;52.156;20.788;2022-08-05T06:54:01;100516.20;;;22.05;75.75
38612;BME280;24368;52.156;20.788;2022-08-05T06:59:03;100508.63;;;22.11;76.72
38612;BME280;24368;52.156;20.788;2022-08-05T07:04:06;100507.06;;;22.33;74.86
38612;BME280;24368;52.156;20.788;2022-08-05T07:09:07;100502.25;;;22.43;75.25
38612;BME280;24368;52.156;20.788;2022-08-05T07:14:09;100503.67;;;22.54;74.85
38612;BME280;24368;52.156;20.788;2022-08-05T07:19:29;100505.70;;;22.67;75.21
38612;BME280;24368;52.156;20.788;2022-08-05T07:24:31;100499.91;;;22.84;73.69
38612;BME280;24368;52.156;20.788;2022-08-05T07:29:33;100503.00;;;22.92;72.41
38612;BME280;24368;52.156;20.788;2022-08-05T07:34:35;100504.12;;;23.00;72.40
38612;BME280;24368;52.156;20.788;2022-08-05T07:39:36;100498.42;;;23.03;73.03
38612;BME280;24368;52.156;20.788;2022-08-05T07:44:38;100493.76;;;23.29;72.00
38612;BME280;24368;52.156;20.788;2022-08-05T07:49:39;100495.25;;;23.45;70.03
38612;BME280;24368;52.156;20.788;2022-08-05T07:54:41;100495.73;;;23.57;68.91
38612;BME280;24368;52.156;20.788;2022-08-05T07:59:43;100492.59;;;23.63;68.59
38612;BME280;24368;52.156;20.788;2022-08-05T08:04:45;100491.66;;;23.69;68.54
38612;BME280;24368;52.156;20.788;2022-08-05T08:09:48;100489.00;;;23.79;69.18
38612;BME280;24368;52.156;20.788;2022-08-05T08:14:50;100487.33;;;23.92;67.49
38612;BME280;24368;52.156;20.788;2022-08-05T08:19:51;100483.13;;;23.98;68.40
38612;BME280;24368;52.156;20.788;2022-08-05T08:24:53;100482.02;;;24.04;69.15
38612;BME280;24368;52.156;20.788;2022-08-05T08:29:55;100487.46;;;24.03;68.36
38612;BME280;24368;52.156;20.788;2022-08-05T08:34:56;100488.21;;;24.17;67.68
38612;BME280;24368;52.156;20.788;2022-08-05T08:39:58;100483.70;;;24.18;67.75
38612;BME280;24368;52.156;20.788;2022-08-05T08:45:00;100480.23;;;24.44;66.40
38612;BME280;24368;52.156;20.788;2022-08-05T08:50:03;100480.90;;;24.55;65.44
38612;BME280;24368;52.156;20.788;2022-08-05T08:55:06;100481.14;;;24.65;65.04
38612;BME280;24368;52.156;20.788;2022-08-05T09:00:08;100479.80;;;24.57;65.63
38612;BME280;24368;52.156;20.788;2022-08-05T09:05:11;100480.74;;;24.64;66.22
38612;BME280;24368;52.156;20.788;2022-08-05T09:10:12;100476.63;;;24.90;62.87
38612;BME280;24368;52.156;20.788;2022-08-05T09:15:15;100470.54;;;25.00;62.10
38612;BME280;24368;52.156;20.788;2022-08-05T09:20:17;100472.27;;;25.16;60.17
38612;BME280;24368;52.156;20.788;2022-08-05T09:25:19;100469.02;;;25.28;59.52
38612;BME280;24368;52.156;20.788;2022-08-05T09:30:21;100458.41;;;25.39;59.33
38612;BME280;24368;52.156;20.788;2022-08-05T09:35:23;100453.13;;;25.44;58.77
38612;BME280;24368;52.156;20.788;2022-08-05T09:40:28;100453.14;;;25.65;57.69
38612;BME280;24368;52.156;20.788;2022-08-05T09:45:41;100446.45;;;25.67;56.70
38612;BME280;24368;52.156;20.788;2022-08-05T09:50:47;100446.50;;;25.86;56.45
38612;BME280;24368;52.156;20.788;2022-08-05T09:55:52;100440.17;;;25.93;57.43
38612;BME280;24368;52.156;20.788;2022-08-05T10:06:14;100442.66;;;26.27;56.24
38612;BME280;24368;52.156;20.788;2022-08-05T10:11:20;100431.92;;;26.32;57.34
38612;BME280;24368;52.156;20.788;2022-08-05T10:21:29;100418.94;;;26.55;54.27
38612;BME280;24368;52.156;20.788;2022-08-05T10:26:30;100411.09;;;26.56;53.90
38612;BME280;24368;52.156;20.788;2022-08-05T10:31:32;100414.77;;;26.70;53.52
38612;BME280;24368;52.156;20.788;2022-08-05T10:36:38;100413.71;;;26.88;51.69
38612;BME280;24368;52.156;20.788;2022-08-05T10:42:02;100407.84;;;26.95;51.74
38612;BME280;24368;52.156;20.788;2022-08-05T10:47:09;100396.83;;;27.03;53.09
38612;BME280;24368;52.156;20.788;2022-08-05T10:52:11;100393.33;;;27.21;53.56
38612;BME280;24368;52.156;20.788;2022-08-05T10:57:33;100388.86;;;27.40;51.44
38612;BME280;24368;52.156;20.788;2022-08-05T11:02:35;100378.50;;;27.57;51.16
38612;BME280;24368;52.156;20.788;2022-08-05T11:07:55;100374.30;;;27.66;51.17
38612;BME280;24368;52.156;20.788;2022-08-05T11:12:58;100370.13;;;27.75;50.04
38612;BME280;24368;52.156;20.788;2022-08-05T11:28:41;100362.91;;;28.24;49.34
38612;BME280;24368;52.156;20.788;2022-08-05T11:48:58;100355.69;;;29.11;46.77
38612;BME280;24368;52.156;20.788;2022-08-05T11:54:01;100354.04;;;28.96;46.75
38612;BME280;24368;52.156;20.788;2022-08-05T11:59:03;100357.67;;;28.68;47.43
38612;BME280;24368;52.156;20.788;2022-08-05T12:04:04;100351.86;;;28.48;48.55
38612;BME280;24368;52.156;20.788;2022-08-05T12:09:06;100350.27;;;28.59;49.93
38612;BME280;24368;52.156;20.788;2022-08-05T12:14:08;100344.92;;;28.71;48.76
38612;BME280;24368;52.156;20.788;2022-08-05T12:19:10;100331.55;;;28.67;49.08
38612;BME280;24368;52.156;20.788;2022-08-05T12:24:16;100333.79;;;28.60;49.39
38612;BME280;24368;52.156;20.788;2022-08-05T12:29:19;100326.48;;;28.70;47.67
38612;BME280;24368;52.156;20.788;2022-08-05T12:34:42;100313.09;;;28.79;48.69
38612;BME280;24368;52.156;20.788;2022-08-05T12:39:44;100305.13;;;28.92;49.44
38612;BME280;24368;52.156;20.788;2022-08-05T12:44:45;100296.42;;;28.88;48.96
38612;BME280;24368;52.156;20.788;2022-08-05T12:49:47;100306.97;;;28.70;48.40
38612;BME280;24368;52.156;20.788;2022-08-05T12:54:49;100303.29;;;28.81;47.71
38612;BME280;24368;52.156;20.788;2022-08-05T12:59:52;100298.27;;;28.89;47.76
38612;BME280;24368;52.156;20.788;2022-08-05T13:04:55;100299.13;;;28.96;47.21
38612;BME280;24368;52.156;20.788;2022-08-05T13:09:57;100283.80;;;29.08;47.04
38612;BME280;24368;52.156;20.788;2022-08-05T13:14:59;100282.34;;;29.30;46.93
38612;BME280;24368;52.156;20.788;2022-08-05T13:25:06;100274.64;;;29.33;45.74
38612;BME280;24368;52.156;20.788;2022-08-05T13:30:09;100269.74;;;29.33;45.93
38612;BME280;24368;52.156;20.788;2022-08-05T13:35:11;100262.41;;;29.39;47.81
38612;BME280;24368;52.156;20.788;2022-08-05T13:40:14;100261.69;;;29.42;45.61
38612;BME280;24368;52.156;20.788;2022-08-05T13:45:17;100257.43;;;29.72;46.14
38612;BME280;24368;52.156;20.788;2022-08-05T13:50:20;100246.69;;;29.89;44.30
38612;BME280;24368;52.156;20.788;2022-08-05T13:55:22;100239.33;;;29.94;45.20
38612;BME280;24368;52.156;20.788;2022-08-05T14:00:24;100243.55;;;29.84;43.70
38612;BME280;24368;52.156;20.788;2022-08-05T14:05:26;100238.54;;;29.79;45.18
38612;BME280;24368;52.156;20.788;2022-08-05T14:10:27;100231.62;;;29.70;45.46
38612;BME280;24368;52.156;20.788;2022-08-05T14:15:29;100231.11;;;29.60;46.22
38612;BME280;24368;52.156;20.788;2022-08-05T14:20:30;100223.41;;;29.74;45.38
38612;BME280;24368;52.156;20.788;2022-08-05T14:25:32;100226.65;;;29.91;44.33
38612;BME280;24368;52.156;20.788;2022-08-05T14:30:34;100222.00;;;29.68;44.57
38612;BME280;24368;52.156;20.788;2022-08-05T14:35:35;100217.89;;;29.63;45.11
38612;BME280;24368;52.156;20.788;2022-08-05T14:40:37;100219.59;;;29.82;44.35
38612;BME280;24368;52.156;20.788;2022-08-05T14:45:39;100215.59;;;30.03;43.71
38612;BME280;24368;52.156;20.788;2022-08-05T14:50:40;100220.84;;;29.96;44.16
38612;BME280;24368;52.156;20.788;2022-08-05T14:55:42;100214.20;;;29.89;44.26
38612;BME280;24368;52.156;20.788;2022-08-05T15:00:44;100211.71;;;29.86;44.76
38612;BME280;24368;52.156;20.788;2022-08-05T15:05:45;100217.31;;;29.87;43.23
38612;BME280;24368;52.156;20.788;2022-08-05T15:10:47;100215.78;;;29.88;43.33
38612;BME280;24368;52.156;20.788;2022-08-05T15:15:49;100215.65;;;29.92;43.59
38612;BME280;24368;52.156;20.788;2022-08-05T15:20:50;100210.84;;;29.87;44.18
38612;BME280;24368;52.156;20.788;2022-08-05T15:25:52;100206.21;;;29.80;43.59
38612;BME280;24368;52.156;20.788;2022-08-05T15:30:54;100196.23;;;29.73;43.88
38612;BME280;24368;52.156;20.788;2022-08-05T15:35:56;100193.17;;;29.75;43.69
38612;BME280;24368;52.156;20.788;2022-08-05T15:40:57;100193.31;;;29.72;43.52
38612;BME280;24368;52.156;20.788;2022-08-05T15:45:59;100186.74;;;29.61;43.82
38612;BME280;24368;52.156;20.788;2022-08-05T15:51:01;100178.57;;;29.51;45.33
38612;BME280;24368;52.156;20.788;2022-08-05T15:56:03;100173.81;;;29.46;44.99
38612;BME280;24368;52.156;20.788;2022-08-05T16:01:05;100176.48;;;29.47;44.58
38612;BME280;24368;52.156;20.788;2022-08-05T16:06:08;100178.73;;;29.51;44.46
38612;BME280;24368;52.156;20.788;2022-08-05T16:11:10;100176.21;;;29.46;44.97
38612;BME280;24368;52.156;20.788;2022-08-05T16:16:13;100169.23;;;29.31;45.70
38612;BME280;24368;52.156;20.788;2022-08-05T16:21:15;100171.13;;;29.27;45.63
38612;BME280;24368;52.156;20.788;2022-08-05T16:26:17;100169.47;;;29.30;44.95
38612;BME280;24368;52.156;20.788;2022-08-05T16:31:19;100164.89;;;29.31;45.65
38612;BME280;24368;52.156;20.788;2022-08-05T16:36:20;100168.21;;;29.23;46.28
38612;BME280;24368;52.156;20.788;2022-08-05T16:41:22;100164.54;;;29.18;46.33
38612;BME280;24368;52.156;20.788;2022-08-05T16:46:24;100164.62;;;29.16;46.40
38612;BME280;24368;52.156;20.788;2022-08-05T16:51:25;100164.04;;;29.11;46.80
38612;BME280;24368;52.156;20.788;2022-08-05T16:56:28;100161.97;;;29.03;47.49
38612;BME280;24368;52.156;20.788;2022-08-05T17:01:30;100155.68;;;28.96;47.75
38612;BME280;24368;52.156;20.788;2022-08-05T17:06:32;100162.91;;;28.85;48.71
38612;BME280;24368;52.156;20.788;2022-08-05T17:11:34;100162.51;;;28.77;48.99
38612;BME280;24368;52.156;20.788;2022-08-05T17:16:36;100158.84;;;28.72;49.60
38612;BME280;24368;52.156;20.788;2022-08-05T17:21:38;100161.09;;;28.66;50.31
38612;BME280;24368;52.156;20.788;2022-08-05T17:26:39;100160.56;;;28.62;50.04
38612;BME280;24368;52.156;20.788;2022-08-05T17:31:41;100164.84;;;28.53;50.78
38612;BME280;24368;52.156;20.788;2022-08-05T17:36:43;100169.06;;;28.42;52.05
38612;BME280;24368;52.156;20.788;2022-08-05T17:41:45;100177.45;;;28.28;53.73
38612;BME280;24368;52.156;20.788;2022-08-05T17:46:46;100174.60;;;28.14;55.34
38612;BME280;24368;52.156;20.788;2022-08-05T17:51:48;100182.13;;;27.94;57.22
38612;BME280;24368;52.156;20.788;2022-08-05T17:56:50;100182.36;;;27.80;58.93
38612;BME280;24368;52.156;20.788;2022-08-05T18:01:52;100178.79;;;27.63;59.65
38612;BME280;24368;52.156;20.788;2022-08-05T18:06:54;100172.16;;;27.52;60.32
38612;BME280;24368;52.156;20.788;2022-08-05T18:11:56;100173.73;;;27.37;61.10
38612;BME280;24368;52.156;20.788;2022-08-05T18:16:57;100176.55;;;27.15;61.33
38612;BME280;24368;52.156;20.788;2022-08-05T18:21:59;100181.29;;;27.05;61.36
38612;BME280;24368;52.156;20.788;2022-08-05T18:27:01;100180.81;;;26.90;62.43
38612;BME280;24368;52.156;20.788;2022-08-05T18:32:03;100185.33;;;26.79;62.78
38612;BME280;24368;52.156;20.788;2022-08-05T18:37:04;100182.04;;;26.72;62.99
38612;BME280;24368;52.156;20.788;2022-08-05T18:42:06;100176.04;;;26.64;62.74
38612;BME280;24368;52.156;20.788;2022-08-05T18:47:08;100174.71;;;26.57;62.19
38612;BME280;24368;52.156;20.788;2022-08-05T18:52:10;100172.01;;;26.57;61.48
38612;BME280;24368;52.156;20.788;2022-08-05T18:57:31;100174.75;;;26.54;60.81
38612;BME280;24368;52.156;20.788;2022-08-05T19:02:33;100174.97;;;26.45;61.32
38612;BME280;24368;52.156;20.788;2022-08-05T19:07:35;100176.48;;;26.28;62.83
38612;BME280;24368;52.156;20.788;2022-08-05T19:12:37;100177.31;;;26.23;63.59
38612;BME280;24368;52.156;20.788;2022-08-05T19:17:39;100183.35;;;26.09;63.80
38612;BME280;24368;52.156;20.788;2022-08-05T19:22:41;100181.31;;;26.05;63.50
38612;BME280;24368;52.156;20.788;2022-08-05T19:27:42;100185.17;;;25.97;64.01
38612;BME280;24368;52.156;20.788;2022-08-05T19:32:44;100186.98;;;25.80;64.10
38612;BME280;24368;52.156;20.788;2022-08-05T19:37:46;100189.44;;;25.72;65.19
38612;BME280;24368;52.156;20.788;2022-08-05T19:42:48;100191.95;;;25.50;66.81
38612;BME280;24368;52.156;20.788;2022-08-05T19:47:50;100189.45;;;25.32;67.70
38612;BME280;24368;52.156;20.788;2022-08-05T19:52:51;100187.72;;;25.37;67.24
38612;BME280;24368;52.156;20.788;2022-08-05T19:57:53;100193.16;;;25.35;67.00
38612;BME280;24368;52.156;20.788;2022-08-05T20:02:55;100198.33;;;25.32;67.38
38612;BME280;24368;52.156;20.788;2022-08-05T20:07:58;100199.10;;;25.05;68.58
38612;BME280;24368;52.156;20.788;2022-08-05T20:12:59;100196.06;;;24.82;69.75
38612;BME280;24368;52.156;20.788;2022-08-05T20:18:01;100192.00;;;24.91;69.29
38612;BME280;24368;52.156;20.788;2022-08-05T20:23:04;100185.44;;;24.80;69.59
38612;BME280;24368;52.156;20.788;2022-08-05T20:28:06;100183.96;;;24.84;69.54
38612;BME280;24368;52.156;20.788;2022-08-05T20:33:08;100182.67;;;24.80;69.42
38612;BME280;24368;52.156;20.788;2022-08-05T20:38:10;100186.95;;;24.66;70.25
38612;BME280;24368;52.156;20.788;2022-08-05T20:43:12;100191.10;;;24.61;70.51
38612;BME280;24368;52.156;20.788;2022-08-05T20:48:14;100196.89;;;24.54;70.69
38612;BME280;24368;52.156;20.788;2022-08-05T20:53:16;100199.85;;;24.49;71.14
38612;BME280;24368;52.156;20.788;2022-08-05T20:58:17;100197.47;;;24.42;70.65
38612;BME280;24368;52.156;20.788;2022-08-05T21:03:19;100198.54;;;24.37;70.21
38612;BME280;24368;52.156;20.788;2022-08-05T21:08:23;100198.90;;;24.26;70.06
38612;BME280;24368;52.156;20.788;2022-08-05T21:13:28;100199.05;;;24.33;70.39
38612;BME280;24368;52.156;20.788;2022-08-05T21:18:32;100198.85;;;24.19;70.60
38612;BME280;24368;52.156;20.788;2022-08-05T21:23:34;100205.25;;;24.13;70.85
38612;BME280;24368;52.156;20.788;2022-08-05T21:28:37;100205.34;;;24.13;69.76
38612;BME280;24368;52.156;20.788;2022-08-05T21:33:39;100206.04;;;24.22;68.28
38612;BME280;24368;52.156;20.788;2022-08-05T21:38:41;100203.83;;;24.27;67.77
38612;BME280;24368;52.156;20.788;2022-08-05T21:43:42;100210.79;;;24.30;67.49
38612;BME280;24368;52.156;20.788;2022-08-05T21:48:44;100208.88;;;24.29;67.27
38612;BME280;24368;52.156;20.788;2022-08-05T21:53:46;100207.05;;;24.26;67.54
38612;BME280;24368;52.156;20.788;2022-08-05T21:58:47;100209.95;;;24.17;68.14
38612;BME280;24368;52.156;20.788;2022-08-05T22:03:49;100200.60;;;24.13;68.43
38612;BME280;24368;52.156;20.788;2022-08-05T22:08:51;100206.31;;;24.15;68.39
38612;BME280;24368;52.156;20.788;2022-08-05T22:13:53;100205.73;;;24.06;68.83
38612;BME280;24368;52.156;20.788;2022-08-05T22:18:54;100204.45;;;23.97;68.83
38612;BME280;24368;52.156;20.788;2022-08-05T22:23:56;100204.13;;;23.92;69.21
38612;BME280;24368;52.156;20.788;2022-08-05T22:29:17;100210.26;;;23.96;68.99
38612;BME280;24368;52.156;20.788;2022-08-05T22:34:19;100200.42;;;23.87;69.23
38612;BME280;24368;52.156;20.788;2022-08-05T22:39:20;100193.32;;;23.79;69.58
38612;BME280;24368;52.156;20.788;2022-08-05T22:44:22;100196.36;;;23.81;69.24
38612;BME280;24368;52.156;20.788;2022-08-05T22:49:24;100198.14;;;23.81;69.45
38612;BME280;24368;52.156;20.788;2022-08-05T22:54:25;100191.77;;;23.77;69.61
38612;BME280;24368;52.156;20.788;2022-08-05T22:59:27;100196.00;;;23.70;69.69
38612;BME280;24368;52.156;20.788;2022-08-05T23:04:29;100193.29;;;23.62;69.97
38612;BME280;24368;52.156;20.788;2022-08-05T23:09:31;100192.55;;;23.54;70.20
38612;BME280;24368;52.156;20.788;2022-08-05T23:14:32;100191.48;;;23.46;70.69
38612;BME280;24368;52.156;20.788;2022-08-05T23:19:34;100192.21;;;23.47;70.55
38612;BME280;24368;52.156;20.788;2022-08-05T23:24:36;100192.59;;;23.44;70.68
38612;BME280;24368;52.156;20.788;2022-08-05T23:29:37;100199.09;;;23.34;71.07
38612;BME280;24368;52.156;20.788;2022-08-05T23:34:39;100196.64;;;23.30;71.26
38612;BME280;24368;52.156;20.788;2022-08-05T23:39:41;100199.99;;;23.28;71.17
38612;BME280;24368;52.156;20.788;2022-08-05T23:44:43;100201.84;;;23.19;71.67
38612;BME280;24368;52.156;20.788;2022-08-05T23:49:44;100200.77;;;23.13;71.83
38612;BME280;24368;52.156;20.788;2022-08-05T23:54:46;100201.63;;;23.14;71.79
38612;BME280;24368;52.156;20.788;2022-08-05T23:59:49;100208.56;;;22.95;72.68
